createdAt,value
2022-11-09T00:03:23.090Z,7.85
2022-11-09T00:08:12.753Z,7.82
2022-11-09T00:12:58.100Z,7.57
2022-11-09T00:17:43.077Z,6.28
2022-11-09T00:22:28.348Z,6.70
2022-11-09T00:27:17.781Z,6.18
2022-11-09T00:32:03.221Z,6.18
2022-11-09T00:36:48.207Z,5.65
2022-11-09T00:41:33.481Z,6.25
2022-11-09T00:46:21.814Z,6.25
2022-11-09T00:51:08.190Z,5.25
2022-11-09T00:56:00.641Z,5.47
2022-11-09T01:00:45.980Z,4.88
2022-11-09T01:05:33.614Z,4.90
2022-11-09T01:10:19.184Z,5.43
2022-11-09T01:15:04.583Z,4.80
2022-11-09T01:19:49.982Z,5.32
2022-11-09T01:24:37.577Z,5.07
2022-11-09T01:29:22.844Z,4.38
2022-11-09T01:34:07.899Z,4.55
2022-11-09T01:38:53.860Z,4.60
2022-11-09T01:43:41.519Z,4.15
2022-11-09T01:48:37.583Z,4.43
2022-11-09T01:53:27.983Z,5.13
2022-11-09T01:58:17.410Z,7.28
2022-11-09T02:03:10.195Z,7.07
2022-11-09T02:07:56.772Z,7.05
2022-11-09T02:12:42.401Z,7.25
2022-11-09T02:17:28.323Z,6.78
2022-11-09T02:22:16.175Z,6.60
2022-11-09T02:27:01.609Z,7.18
2022-11-09T02:31:51.503Z,7.85
2022-11-09T02:36:37.134Z,6.78
2022-11-09T02:41:25.770Z,6.43
2022-11-09T02:46:11.027Z,6.28
2022-11-09T02:50:56.056Z,5.70
2022-11-09T02:55:41.363Z,5.88
2022-11-09T03:00:29.200Z,6.00
2022-11-09T03:05:14.576Z,5.63
2022-11-09T03:10:00.021Z,5.80
2022-11-09T03:14:45.325Z,5.32
2022-11-09T03:19:32.984Z,4.90
2022-11-09T03:24:18.292Z,4.07
2022-11-09T03:29:03.488Z,3.95
2022-11-09T03:33:48.761Z,3.78
2022-11-09T03:38:36.398Z,5.38
2022-11-09T03:43:22.149Z,4.70
2022-11-09T03:48:08.245Z,4.10
2022-11-09T03:52:53.530Z,4.60
2022-11-09T03:57:41.130Z,3.97
2022-11-09T04:02:26.647Z,4.45
2022-11-09T04:07:12.847Z,4.53
2022-11-09T04:11:58.168Z,5.88
2022-11-09T04:16:45.758Z,4.47
2022-11-09T04:21:31.031Z,4.97
2022-11-09T04:26:16.023Z,4.93
2022-11-09T04:31:04.009Z,4.45
2022-11-09T04:35:51.591Z,4.80
2022-11-09T04:40:38.239Z,4.25
2022-11-09T04:45:23.767Z,3.92
2022-11-09T04:50:10.709Z,4.28
2022-11-09T04:54:58.325Z,4.75
2022-11-09T04:59:43.584Z,4.25
2022-11-09T05:04:28.616Z,4.65
2022-11-09T05:09:13.916Z,4.20
2022-11-09T05:14:01.779Z,4.45
2022-11-09T05:18:47.083Z,6.20
2022-11-09T05:23:44.453Z,5.97
2022-11-09T05:28:29.719Z,5.05
2022-11-09T05:33:17.676Z,5.00
2022-11-09T05:38:03.259Z,5.10
2022-11-09T05:42:48.918Z,5.22
2022-11-09T05:47:34.203Z,4.50
2022-11-09T05:52:21.961Z,4.75
2022-11-09T05:57:07.377Z,4.95
2022-11-09T06:01:52.376Z,4.85
2022-11-09T06:06:37.844Z,4.68
2022-11-09T06:11:25.676Z,5.72
2022-11-09T06:16:12.778Z,5.38
2022-11-09T06:20:59.012Z,5.80
2022-11-09T06:25:44.290Z,5.90
2022-11-09T06:30:32.330Z,5.50
2022-11-09T06:35:17.914Z,5.53
2022-11-09T06:40:03.074Z,6.32
2022-11-09T06:44:48.313Z,6.72
2022-11-09T06:49:35.895Z,10.02
2022-11-09T06:54:21.191Z,9.52
2022-11-09T06:59:06.280Z,7.05
2022-11-09T07:03:51.714Z,5.93
2022-11-09T07:08:39.728Z,5.47
2022-11-09T07:13:24.986Z,5.70
2022-11-09T07:18:13.002Z,5.80
2022-11-09T07:22:58.394Z,6.57
2022-11-09T07:27:46.138Z,5.90
2022-11-09T07:32:54.092Z,6.28
2022-11-09T07:37:37.049Z,6.78
2022-11-09T07:42:22.052Z,7.43
2022-11-09T07:47:13.313Z,7.45
2022-11-09T07:52:02.215Z,5.68
2022-11-09T07:56:47.501Z,5.72
2022-11-09T08:01:33.063Z,6.22
2022-11-09T08:06:20.639Z,6.63
2022-11-09T08:11:06.065Z,7.22
2022-11-09T08:15:51.062Z,6.90
2022-11-09T08:20:37.191Z,7.40
2022-11-09T08:25:24.892Z,7.15
2022-11-09T08:30:14.475Z,6.47
2022-11-09T08:34:59.717Z,6.75
2022-11-09T08:39:45.112Z,6.22
2022-11-09T08:44:32.958Z,5.10
2022-11-09T08:49:18.196Z,4.35
2022-11-09T08:54:03.509Z,4.22
2022-11-09T08:58:48.817Z,3.50
2022-11-09T09:03:36.760Z,3.58
2022-11-09T09:08:23.619Z,4.38
2022-11-09T09:13:09.150Z,3.20
2022-11-09T09:17:54.180Z,2.90
2022-11-09T09:22:42.788Z,2.65
2022-11-09T09:27:29.537Z,3.45
2022-11-09T09:32:14.824Z,4.43
2022-11-09T09:36:59.808Z,4.00
2022-11-09T09:41:53.628Z,4.07
2022-11-09T09:46:47.252Z,3.90
2022-11-09T09:51:38.540Z,3.65
2022-11-09T09:56:27.737Z,3.50
2022-11-09T10:01:20.196Z,3.55
2022-11-09T10:06:12.569Z,3.35
2022-11-09T10:11:08.447Z,3.30
2022-11-09T10:15:58.840Z,2.60
2022-11-09T10:20:58.988Z,2.72
2022-11-09T10:26:06.257Z,2.53
2022-11-09T10:30:54.840Z,3.13
2022-11-09T10:35:45.245Z,2.97
2022-11-09T10:40:36.932Z,3.47
2022-11-09T10:45:31.288Z,3.13
2022-11-09T10:50:25.964Z,3.80
2022-11-09T10:55:26.617Z,3.63
2022-11-09T11:00:21.989Z,3.40
2022-11-09T11:05:25.936Z,4.32
2022-11-09T11:10:18.080Z,6.63
2022-11-09T11:15:03.124Z,4.53
2022-11-09T11:19:51.103Z,5.82
2022-11-09T11:24:45.475Z,5.70
2022-11-09T11:29:46.048Z,4.35
2022-11-09T11:34:57.923Z,4.35
2022-11-09T11:39:53.498Z,3.97
2022-11-09T11:45:07.199Z,3.30
2022-11-09T11:50:15.204Z,3.33
2022-11-09T11:55:21.524Z,3.42
2022-11-09T12:00:15.198Z,3.13
2022-11-09T12:05:34.104Z,3.20
2022-11-09T12:10:38.640Z,3.28
2022-11-09T12:15:38.680Z,2.95
2022-11-09T12:20:34.288Z,2.75
2022-11-09T12:25:25.299Z,2.97
2022-11-09T12:30:17.939Z,3.50
2022-11-09T12:35:19.438Z,2.50
2022-11-09T12:40:13.843Z,2.60
2022-11-09T12:45:06.311Z,2.63
2022-11-09T12:49:56.216Z,2.80
2022-11-09T12:54:46.496Z,2.90
2022-11-09T12:59:40.271Z,2.88
2022-11-09T13:04:27.442Z,3.08
2022-11-09T13:09:35.894Z,3.35
2022-11-09T13:14:41.727Z,3.40
2022-11-09T13:19:57.533Z,3.33
2022-11-09T13:25:01.700Z,3.20
2022-11-09T13:29:56.543Z,3.63
2022-11-09T13:34:44.098Z,5.13
2022-11-09T13:39:34.180Z,3.83
2022-11-09T13:44:32.872Z,4.20
2022-11-09T13:49:44.556Z,3.08
2022-11-09T13:54:34.834Z,3.42
2022-11-09T13:59:24.724Z,2.72
2022-11-09T14:04:26.341Z,1.95
2022-11-09T14:09:20.108Z,2.30
2022-11-09T14:14:34.072Z,2.08
2022-11-09T14:19:31.635Z,2.00
2022-11-09T14:24:20.902Z,2.08
2022-11-09T14:29:15.040Z,2.30
2022-11-09T14:34:05.263Z,1.92
2022-11-09T14:38:52.874Z,1.92
2022-11-09T14:43:42.123Z,1.73
2022-11-09T14:48:27.969Z,2.10
2022-11-09T14:53:19.160Z,2.20
2022-11-09T14:58:06.921Z,2.10
2022-11-09T15:02:52.197Z,2.45
2022-11-09T15:07:38.391Z,2.70
2022-11-09T15:12:24.451Z,2.67
2022-11-09T15:17:18.311Z,2.50
2022-11-09T15:22:03.684Z,2.22
2022-11-09T15:26:51.129Z,3.35
2022-11-09T15:31:36.179Z,2.55
2022-11-09T15:36:32.213Z,3.58
2022-11-09T15:41:20.608Z,2.50
2022-11-09T15:46:06.374Z,2.60
2022-11-09T15:50:51.640Z,3.50
2022-11-09T15:55:39.778Z,6.05
2022-11-09T16:00:26.303Z,7.40
2022-11-09T16:05:12.043Z,6.38
2022-11-09T16:09:57.549Z,6.55
2022-11-09T16:14:45.178Z,6.97
2022-11-09T16:19:30.470Z,3.72
2022-11-09T16:24:15.508Z,3.58
2022-11-09T16:29:01.169Z,4.18
2022-11-09T16:33:48.823Z,5.13
2022-11-09T16:38:38.921Z,5.30
2022-11-09T16:43:24.582Z,7.05
2022-11-09T16:48:14.375Z,6.70
2022-11-09T16:53:02.257Z,5.63
2022-11-09T16:57:47.808Z,7.32
2022-11-09T17:02:33.445Z,7.28
2022-11-09T17:07:18.470Z,13.90
2022-11-09T17:12:06.688Z,16.50
2022-11-09T17:16:51.699Z,13.55
2022-11-09T17:21:37.014Z,10.02
2022-11-09T17:26:23.211Z,14.98
2022-11-09T17:31:14.620Z,8.93
2022-11-09T17:36:03.103Z,11.97
2022-11-09T17:40:48.384Z,10.88
2022-11-09T17:45:33.445Z,10.38
2022-11-09T17:50:22.084Z,12.10
2022-11-09T17:55:07.610Z,18.90
2022-11-09T17:59:52.883Z,19.00
2022-11-09T18:04:39.545Z,19.90
2022-11-09T18:09:40.680Z,35.63
2022-11-09T18:19:12.002Z,48.13
2022-11-09T18:23:57.424Z,28.23
2022-11-09T18:28:45.419Z,29.55
2022-11-09T18:33:31.301Z,33.47
2022-11-09T18:38:20.034Z,31.55
2022-11-09T18:43:05.516Z,33.83
2022-11-09T18:47:54.151Z,37.55
2022-11-09T18:52:39.682Z,27.40
2022-11-09T18:57:24.711Z,24.25
2022-11-09T19:02:11.659Z,18.25
2022-11-09T19:06:59.581Z,23.98
2022-11-09T19:11:45.027Z,21.02
2022-11-09T19:16:30.747Z,22.05
2022-11-09T19:21:35.050Z,32.80
2022-11-09T19:26:23.772Z,28.17
2022-11-09T19:31:08.961Z,33.13
2022-11-09T19:36:23.423Z,29.67
2022-11-09T19:40:59.998Z,26.88
2022-11-09T19:45:47.698Z,30.35
2022-11-09T19:50:32.956Z,32.88
2022-11-09T19:55:18.080Z,32.13
2022-11-09T20:00:03.856Z,24.20
2022-11-09T20:04:53.112Z,33.42
2022-11-09T20:09:38.854Z,30.20
2022-11-09T20:14:23.985Z,20.75
2022-11-09T20:19:11.190Z,20.77
2022-11-09T20:23:58.892Z,18.98
2022-11-09T20:28:44.249Z,14.25
2022-11-09T20:33:29.507Z,17.73
2022-11-09T20:38:14.755Z,17.45
2022-11-09T20:43:02.348Z,16.25
2022-11-09T20:48:07.730Z,18.20
2022-11-09T20:52:53.237Z,19.70
2022-11-09T20:57:38.264Z,17.23
2022-11-09T21:02:26.112Z,18.27
2022-11-09T21:07:11.159Z,20.58
2022-11-09T21:12:11.983Z,17.67
2022-11-09T21:16:57.238Z,25.73
2022-11-09T21:21:44.839Z,23.05
2022-11-09T21:26:42.820Z,20.48
2022-11-09T21:31:27.792Z,13.65
2022-11-09T21:36:15.140Z,13.02
2022-11-09T21:41:26.117Z,14.80
2022-11-09T21:46:11.431Z,12.88
2022-11-09T21:51:00.683Z,34.75
2022-11-09T21:55:45.960Z,9.50
2022-11-09T22:00:33.544Z,7.82
2022-11-09T22:05:22.758Z,9.95
2022-11-09T22:10:11.073Z,6.60
2022-11-09T22:15:09.255Z,9.02
2022-11-09T22:20:09.217Z,10.55
2022-11-09T22:24:54.488Z,11.20
2022-11-09T22:29:39.477Z,12.43
2022-11-09T22:34:24.788Z,9.02
2022-11-09T22:39:12.581Z,8.32
2022-11-09T22:43:57.972Z,8.50
2022-11-09T22:48:44.273Z,12.40
2022-11-09T22:53:29.790Z,10.23
2022-11-09T22:58:17.388Z,11.02
2022-11-09T23:03:02.653Z,10.95
2022-11-09T23:07:47.997Z,10.27
2022-11-09T23:12:35.330Z,13.05
2022-11-09T23:17:35.802Z,13.23
2022-11-09T23:22:21.109Z,13.27
2022-11-09T23:27:06.160Z,13.60
2022-11-09T23:31:51.435Z,10.88
2022-11-09T23:36:39.074Z,10.65
2022-11-09T23:41:24.843Z,13.07
2022-11-09T23:46:11.532Z,12.02
2022-11-09T23:51:00.520Z,11.25
2022-11-09T23:55:48.274Z,11.25
